Montinho — CSYD — position and weather

sailwx.info

Track history (hours):
 
Tides and Currents Weather Stations Pressure Air Temp Water Temp Dewpoint Dewpoint Depression Visibility Wind Speed Wind Dir Waves Ship Positions

Montinho

Last reported at 2018-Apr-22 03:18 UTC. Time now 2018-Apr-24 00:40 UTC.
Position N 38°28' W 008°47'.

Length 33 m; draft 4.6 m.

Type: Towing. MMSI: 263601490.

Date/timePositionNaut miles runAvg speedWind from/ knotsBaromVisibWave heightAir tempDewpointWater temp
2018-Apr-22 03:18N 38°28' W 008°47'3 8.4
2018-Apr-22 02:58N 38°28' W 008°51'0 0.0
2018-Apr-22 02:02N 38°28' W 008°51'0 0.0
2018-Apr-22 01:49N 38°28' W 008°51'0 0.0
2018-Apr-22 00:48N 38°28' W 008°51'0 0.0
2018-Apr-22 00:13N 38°28' W 008°51'0 0.0
2018-Apr-21 23:54N 38°28' W 008°51'0 0.0
2018-Apr-21 22:42N 38°28' W 008°51'0 0.0
2018-Apr-21 22:13N 38°28' W 008°51'0 0.0
2018-Apr-21 22:00N 38°28' W 008°51'0 0.0
2018-Apr-21 21:30N 38°28' W 008°51'0 0.0
2018-Apr-21 20:51N 38°28' W 008°51'0 0.1
2018-Apr-21 20:28N 38°28' W 008°51'0 0.1
2018-Apr-21 19:59N 38°28' W 008°51'0 0.0
2018-Apr-21 18:05N 38°28' W 008°51'0 0.2
2018-Apr-21 17:50N 38°28' W 008°51'0 0.1
2018-Apr-21 17:30N 38°28' W 008°51'0 0.0
2018-Apr-21 16:37N 38°28' W 008°51'0 0.0
2018-Apr-21 15:00N 38°28' W 008°51'4 1.4
2018-Apr-21 12:21N 38°30' W 008°55'1 2.3
2018-Apr-21 11:56N 38°29' W 008°56'1 1.4
2018-Apr-21 11:30N 38°29' W 008°56'1 1.2
2018-Apr-21 11:00N 38°28' W 008°57'1 1.2
2018-Apr-21 10:30N 38°28' W 008°57'0 0.8
2018-Apr-21 10:00N 38°28' W 008°58'0 0.7
2018-Apr-21 09:30N 38°27' W 008°58'0 0.7
2018-Apr-21 09:00N 38°27' W 008°58'0 0.4
2018-Apr-21 08:30N 38°27' W 008°59'1 1.4
2018-Apr-21 08:00N 38°26' W 008°59'1 1.5
2018-Apr-21 07:30N 38°26' W 008°60'1 1.4
2018-Apr-21 07:00N 38°25' W 009°00'0 1.0
2018-Apr-21 06:30N 38°25' W 009°01'0 0.3
2018-Apr-21 06:00N 38°25' W 009°01'0 0.8
2018-Apr-21 05:30N 38°24' W 009°01'2 3.9
2018-Apr-21 04:59N 38°26' W 008°59'610.3
2018-Apr-21 04:24N 38°30' W 008°53'410.4
2018-Apr-21 03:59N 38°28' W 008°48'6 0.8
2018-Apr-20 20:13N 38°29' W 008°56'210.9
2018-Apr-20 20:00N 38°27' W 008°58'3 5.5
2018-Apr-20 19:30N 38°29' W 008°56'4 8.9
2018-Apr-20 19:00N 38°28' W 008°50'3 4.5
2018-Apr-20 18:26N 38°28' W 008°47'0 0.5
2018-Apr-20 17:56N 38°28' W 008°47'0 0.0
2018-Apr-18 17:35N 38°28' W 008°48'0 0.6
2018-Apr-18 17:27N 38°28' W 008°48'0 0.1
2018-Apr-18 17:00N 38°28' W 008°48'1 1.0
2018-Apr-18 16:25N 38°28' W 008°48'0 0.6
2018-Apr-18 15:59N 38°28' W 008°48'0 0.0
2018-Apr-18 15:21N 38°28' W 008°48'5 0.3
2018-Apr-17 20:58N 38°30' W 008°55'510.6
2018-Apr-17 20:30N 38°26' W 008°59'2 4.5
2018-Apr-17 20:00N 38°24' W 008°59'1 1.7
2018-Apr-17 19:30N 38°23' W 009°00'1 1.3
2018-Apr-17 19:00N 38°23' W 009°01'612.1
2018-Apr-17 18:30N 38°28' W 008°57'8 0.7
2018-Apr-17 07:35N 38°28' W 008°47'0 0.1
2018-Apr-17 07:31N 38°28' W 008°47'0 0.0
2018-Apr-17 07:00N 38°28' W 008°47'7 4.8
2018-Apr-17 05:33N 38°29' W 008°56'110.2
2018-Apr-17 05:28N 38°28' W 008°57'3 6.7
2018-Apr-17 05:01N 38°26' W 008°60'3 5.0
2018-Apr-17 04:30N 38°28' W 008°57'5 9.3
2018-Apr-17 03:58N 38°28' W 008°51'3 3.4
2018-Apr-17 03:11N 38°28' W 008°48'0 0.2
2018-Apr-17 03:00N 38°28' W 008°48'0 0.1
2018-Apr-17 02:23N 38°28' W 008°48'0 0.5
2018-Apr-17 01:50N 38°28' W 008°47'0 0.0
2018-Apr-17 01:28N 38°28' W 008°47'0 0.0
2018-Apr-17 00:57N 38°28' W 008°47'0 0.0
2018-Apr-17 00:24N 38°28' W 008°47'0 0.0
2018-Apr-16 23:57N 38°28' W 008°47'0 0.0
2018-Apr-16 23:18N 38°28' W 008°47'0 0.0
2018-Apr-16 22:47N 38°28' W 008°47'0 0.0
2018-Apr-16 22:22N 38°28' W 008°47'0 0.0
2018-Apr-16 21:54N 38°28' W 008°47'0 0.0
2018-Apr-16 21:30N 38°28' W 008°47'0 0.0
2018-Apr-16 20:59N 38°28' W 008°47'0 0.0
2018-Apr-16 20:29N 38°28' W 008°47'0 0.0
2018-Apr-16 19:52N 38°28' W 008°47'0 0.0
2018-Apr-16 19:26N 38°28' W 008°47'0 0.1
2018-Apr-16 16:20N 38°29' W 008°48'0 0.0
2018-Apr-15 20:20N 38°28' W 008°47'0 0.2
2018-Apr-15 19:56N 38°28' W 008°47'7 6.1
2018-Apr-15 18:49N 38°29' W 008°56'3 9.1
2018-Apr-15 18:30N 38°27' W 008°58'0 0.1
2018-Apr-15 18:00N 38°27' W 008°58'5 3.6
2018-Apr-15 16:29N 38°31' W 008°54'2 4.0
2018-Apr-15 16:00N 38°30' W 008°56'611.9
2018-Apr-15 15:30N 38°25' W 008°59'3 5.7
2018-Apr-15 15:00N 38°27' W 008°58'5 9.2
2018-Apr-15 14:29N 38°29' W 008°52'4 0.1
2018-Apr-13 23:55N 38°28' W 008°48'7 3.1
2018-Apr-13 21:47N 38°29' W 008°56'0 1.2
2018-Apr-13 21:30N 38°29' W 008°56'  
Track history (hours):
 
Tides and Currents Weather Stations Pressure Air Temp Water Temp Dewpoint Dewpoint Depression Visibility Wind Speed Wind Dir Waves Ship Positions

Montinho

Last reported at 2018-Apr-22 03:18 UTC. Time now 2018-Apr-24 00:40 UTC.
Position N 38°28' W 008°47'.

Length 33 m; draft 4.6 m.

Type: Towing. MMSI: 263601490.

Date/timePositionNaut miles runAvg speedWind from/ knotsBaromVisibWave heightAir tempDewpointWater temp
2018-Apr-22 03:18N 38°28' W 008°47'3 8.4
2018-Apr-22 02:58N 38°28' W 008°51'0 0.0
2018-Apr-22 02:02N 38°28' W 008°51'0 0.0
2018-Apr-22 01:49N 38°28' W 008°51'0 0.0
2018-Apr-22 00:48N 38°28' W 008°51'0 0.0
2018-Apr-22 00:13N 38°28' W 008°51'0 0.0
2018-Apr-21 23:54N 38°28' W 008°51'0 0.0
2018-Apr-21 22:42N 38°28' W 008°51'0 0.0
2018-Apr-21 22:13N 38°28' W 008°51'0 0.0
2018-Apr-21 22:00N 38°28' W 008°51'0 0.0
2018-Apr-21 21:30N 38°28' W 008°51'0 0.0
2018-Apr-21 20:51N 38°28' W 008°51'0 0.1
2018-Apr-21 20:28N 38°28' W 008°51'0 0.1
2018-Apr-21 19:59N 38°28' W 008°51'0 0.0
2018-Apr-21 18:05N 38°28' W 008°51'0 0.2
2018-Apr-21 17:50N 38°28' W 008°51'0 0.1
2018-Apr-21 17:30N 38°28' W 008°51'0 0.0
2018-Apr-21 16:37N 38°28' W 008°51'0 0.0
2018-Apr-21 15:00N 38°28' W 008°51'4 1.4
2018-Apr-21 12:21N 38°30' W 008°55'1 2.3
2018-Apr-21 11:56N 38°29' W 008°56'1 1.4
2018-Apr-21 11:30N 38°29' W 008°56'1 1.2
2018-Apr-21 11:00N 38°28' W 008°57'1 1.2
2018-Apr-21 10:30N 38°28' W 008°57'0 0.8
2018-Apr-21 10:00N 38°28' W 008°58'0 0.7
2018-Apr-21 09:30N 38°27' W 008°58'0 0.7
2018-Apr-21 09:00N 38°27' W 008°58'0 0.4
2018-Apr-21 08:30N 38°27' W 008°59'1 1.4
2018-Apr-21 08:00N 38°26' W 008°59'1 1.5
2018-Apr-21 07:30N 38°26' W 008°60'1 1.4
2018-Apr-21 07:00N 38°25' W 009°00'0 1.0
2018-Apr-21 06:30N 38°25' W 009°01'0 0.3
2018-Apr-21 06:00N 38°25' W 009°01'0 0.8
2018-Apr-21 05:30N 38°24' W 009°01'2 3.9
2018-Apr-21 04:59N 38°26' W 008°59'610.3
2018-Apr-21 04:24N 38°30' W 008°53'410.4
2018-Apr-21 03:59N 38°28' W 008°48'6 0.8
2018-Apr-20 20:13N 38°29' W 008°56'210.9
2018-Apr-20 20:00N 38°27' W 008°58'3 5.5
2018-Apr-20 19:30N 38°29' W 008°56'4 8.9
2018-Apr-20 19:00N 38°28' W 008°50'3 4.5
2018-Apr-20 18:26N 38°28' W 008°47'0 0.5
2018-Apr-20 17:56N 38°28' W 008°47'0 0.0
2018-Apr-18 17:35N 38°28' W 008°48'0 0.6
2018-Apr-18 17:27N 38°28' W 008°48'0 0.1
2018-Apr-18 17:00N 38°28' W 008°48'1 1.0
2018-Apr-18 16:25N 38°28' W 008°48'0 0.6
2018-Apr-18 15:59N 38°28' W 008°48'0 0.0
2018-Apr-18 15:21N 38°28' W 008°48'5 0.3
2018-Apr-17 20:58N 38°30' W 008°55'510.6
2018-Apr-17 20:30N 38°26' W 008°59'2 4.5
2018-Apr-17 20:00N 38°24' W 008°59'1 1.7
2018-Apr-17 19:30N 38°23' W 009°00'1 1.3
2018-Apr-17 19:00N 38°23' W 009°01'612.1
2018-Apr-17 18:30N 38°28' W 008°57'8 0.7
2018-Apr-17 07:35N 38°28' W 008°47'0 0.1
2018-Apr-17 07:31N 38°28' W 008°47'0 0.0
2018-Apr-17 07:00N 38°28' W 008°47'7 4.8
2018-Apr-17 05:33N 38°29' W 008°56'110.2
2018-Apr-17 05:28N 38°28' W 008°57'3 6.7
2018-Apr-17 05:01N 38°26' W 008°60'3 5.0
2018-Apr-17 04:30N 38°28' W 008°57'5 9.3
2018-Apr-17 03:58N 38°28' W 008°51'3 3.4
2018-Apr-17 03:11N 38°28' W 008°48'0 0.2
2018-Apr-17 03:00N 38°28' W 008°48'0 0.1
2018-Apr-17 02:23N 38°28' W 008°48'0 0.5
2018-Apr-17 01:50N 38°28' W 008°47'0 0.0
2018-Apr-17 01:28N 38°28' W 008°47'0 0.0
2018-Apr-17 00:57N 38°28' W 008°47'0 0.0
2018-Apr-17 00:24N 38°28' W 008°47'0 0.0
2018-Apr-16 23:57N 38°28' W 008°47'0 0.0
2018-Apr-16 23:18N 38°28' W 008°47'0 0.0
2018-Apr-16 22:47N 38°28' W 008°47'0 0.0
2018-Apr-16 22:22N 38°28' W 008°47'0 0.0
2018-Apr-16 21:54N 38°28' W 008°47'0 0.0
2018-Apr-16 21:30N 38°28' W 008°47'0 0.0
2018-Apr-16 20:59N 38°28' W 008°47'0 0.0
2018-Apr-16 20:29N 38°28' W 008°47'0 0.0
2018-Apr-16 19:52N 38°28' W 008°47'0 0.0
2018-Apr-16 19:26N 38°28' W 008°47'0 0.1
2018-Apr-16 16:20N 38°29' W 008°48'0 0.0
2018-Apr-15 20:20N 38°28' W 008°47'0 0.2
2018-Apr-15 19:56N 38°28' W 008°47'7 6.1
2018-Apr-15 18:49N 38°29' W 008°56'3 9.1
2018-Apr-15 18:30N 38°27' W 008°58'0 0.1
2018-Apr-15 18:00N 38°27' W 008°58'5 3.6
2018-Apr-15 16:29N 38°31' W 008°54'2 4.0
2018-Apr-15 16:00N 38°30' W 008°56'611.9
2018-Apr-15 15:30N 38°25' W 008°59'3 5.7
2018-Apr-15 15:00N 38°27' W 008°58'5 9.2
2018-Apr-15 14:29N 38°29' W 008°52'4 0.1
2018-Apr-13 23:55N 38°28' W 008°48'7 3.1
2018-Apr-13 21:47N 38°29' W 008°56'0 1.2
2018-Apr-13 21:30N 38°29' W 008°56'  

Dump ship's entire track history